sensor_id;sensor_type;location;lat;lon;timestamp;P1;durP1;ratioP1;P2;durP2;ratioP2
13122;SDS011;6627;50.920;12.050;2022-09-13T00:02:21;7.50;;;5.37;;
13122;SDS011;6627;50.920;12.050;2022-09-13T00:04:48;5.73;;;5.17;;
13122;SDS011;6627;50.920;12.050;2022-09-13T00:07:16;6.83;;;5.27;;
13122;SDS011;6627;50.920;12.050;2022-09-13T00:09:44;5.93;;;5.33;;
13122;SDS011;6627;50.920;12.050;2022-09-13T00:12:11;6.07;;;5.47;;
13122;SDS011;6627;50.920;12.050;2022-09-13T00:14:39;7.37;;;5.53;;
13122;SDS011;6627;50.920;12.050;2022-09-13T00:17:06;6.53;;;5.00;;
13122;SDS011;6627;50.920;12.050;2022-09-13T00:19:33;6.70;;;5.50;;
13122;SDS011;6627;50.920;12.050;2022-09-13T00:22:01;6.60;;;5.57;;
13122;SDS011;6627;50.920;12.050;2022-09-13T00:24:29;8.07;;;6.07;;
13122;SDS011;6627;50.920;12.050;2022-09-13T00:26:56;9.73;;;6.67;;
13122;SDS011;6627;50.920;12.050;2022-09-13T00:29:23;6.77;;;6.03;;
13122;SDS011;6627;50.920;12.050;2022-09-13T00:31:50;8.53;;;7.13;;
13122;SDS011;6627;50.920;12.050;2022-09-13T00:34:18;10.07;;;6.80;;
13122;SDS011;6627;50.920;12.050;2022-09-13T00:36:45;9.23;;;7.10;;
13122;SDS011;6627;50.920;12.050;2022-09-13T00:39:12;9.97;;;7.03;;
13122;SDS011;6627;50.920;12.050;2022-09-13T00:41:41;7.87;;;6.60;;
13122;SDS011;6627;50.920;12.050;2022-09-13T00:47:22;8.17;;;5.93;;
13122;SDS011;6627;50.920;12.050;2022-09-13T00:49:59;8.40;;;6.63;;
13122;SDS011;6627;50.920;12.050;2022-09-13T00:52:38;7.83;;;6.07;;
13122;SDS011;6627;50.920;12.050;2022-09-13T00:55:10;6.90;;;5.90;;
13122;SDS011;6627;50.920;12.050;2022-09-13T00:57:48;8.33;;;6.67;;
13122;SDS011;6627;50.920;12.050;2022-09-13T01:00:17;8.87;;;6.57;;
13122;SDS011;6627;50.920;12.050;2022-09-13T01:02:45;8.93;;;6.80;;
13122;SDS011;6627;50.920;12.050;2022-09-13T01:05:19;6.77;;;6.13;;
13122;SDS011;6627;50.920;12.050;2022-09-13T01:07:53;10.47;;;6.23;;
13122;SDS011;6627;50.920;12.050;2022-09-13T01:10:22;7.17;;;6.47;;
13122;SDS011;6627;50.920;12.050;2022-09-13T01:12:51;5.97;;;5.37;;
13122;SDS011;6627;50.920;12.050;2022-09-13T01:15:27;7.53;;;6.63;;
13122;SDS011;6627;50.920;12.050;2022-09-13T01:17:54;7.97;;;6.47;;
13122;SDS011;6627;50.920;12.050;2022-09-13T01:20:24;8.50;;;7.13;;
13122;SDS011;6627;50.920;12.050;2022-09-13T01:23:15;6.77;;;6.07;;
13122;SDS011;6627;50.920;12.050;2022-09-13T01:29:13;6.77;;;6.00;;
13122;SDS011;6627;50.920;12.050;2022-09-13T01:32:19;8.43;;;5.80;;
13122;SDS011;6627;50.920;12.050;2022-09-13T01:35:02;8.30;;;5.77;;
13122;SDS011;6627;50.920;12.050;2022-09-13T01:37:50;8.70;;;5.10;;
13122;SDS011;6627;50.920;12.050;2022-09-13T01:40:33;6.10;;;5.50;;
13122;SDS011;6627;50.920;12.050;2022-09-13T01:43:21;6.30;;;5.03;;
13122;SDS011;6627;50.920;12.050;2022-09-13T01:46:06;6.47;;;5.13;;
13122;SDS011;6627;50.920;12.050;2022-09-13T01:48:46;7.63;;;5.50;;
13122;SDS011;6627;50.920;12.050;2022-09-13T01:51:25;7.33;;;5.53;;
13122;SDS011;6627;50.920;12.050;2022-09-13T01:54:10;6.30;;;5.60;;
13122;SDS011;6627;50.920;12.050;2022-09-13T01:56:50;6.80;;;5.37;;
13122;SDS011;6627;50.920;12.050;2022-09-13T01:59:28;6.30;;;5.13;;
13122;SDS011;6627;50.920;12.050;2022-09-13T02:02:10;6.73;;;5.47;;
13122;SDS011;6627;50.920;12.050;2022-09-13T02:04:47;6.23;;;5.60;;
13122;SDS011;6627;50.920;12.050;2022-09-13T02:07:20;8.13;;;6.07;;
13122;SDS011;6627;50.920;12.050;2022-09-13T02:09:56;6.97;;;6.27;;
13122;SDS011;6627;50.920;12.050;2022-09-13T02:12:30;7.97;;;6.63;;
13122;SDS011;6627;50.920;12.050;2022-09-13T02:15:06;8.53;;;6.83;;
13122;SDS011;6627;50.920;12.050;2022-09-13T02:17:40;8.10;;;6.47;;
13122;SDS011;6627;50.920;12.050;2022-09-13T02:20:16;7.93;;;6.87;;
13122;SDS011;6627;50.920;12.050;2022-09-13T02:22:54;8.17;;;6.07;;
13122;SDS011;6627;50.920;12.050;2022-09-13T02:25:27;9.57;;;6.10;;
13122;SDS011;6627;50.920;12.050;2022-09-13T02:28:02;6.80;;;6.13;;
13122;SDS011;6627;50.920;12.050;2022-09-13T02:30:38;9.13;;;6.93;;
13122;SDS011;6627;50.920;12.050;2022-09-13T02:33:14;8.57;;;6.97;;
13122;SDS011;6627;50.920;12.050;2022-09-13T02:35:50;9.13;;;7.33;;
13122;SDS011;6627;50.920;12.050;2022-09-13T02:38:21;8.57;;;7.70;;
13122;SDS011;6627;50.920;12.050;2022-09-13T02:40:55;11.10;;;7.60;;
13122;SDS011;6627;50.920;12.050;2022-09-13T02:43:30;8.60;;;7.07;;
13122;SDS011;6627;50.920;12.050;2022-09-13T02:46:08;11.13;;;7.20;;
13122;SDS011;6627;50.920;12.050;2022-09-13T02:48:51;9.30;;;7.63;;
13122;SDS011;6627;50.920;12.050;2022-09-13T02:51:31;8.83;;;7.70;;
13122;SDS011;6627;50.920;12.050;2022-09-13T02:54:11;8.07;;;7.27;;
13122;SDS011;6627;50.920;12.050;2022-09-13T02:56:51;9.93;;;7.10;;
13122;SDS011;6627;50.920;12.050;2022-09-13T02:59:27;7.70;;;6.87;;
13122;SDS011;6627;50.920;12.050;2022-09-13T03:01:56;8.57;;;7.30;;
13122;SDS011;6627;50.920;12.050;2022-09-13T03:04:30;13.40;;;7.57;;
13122;SDS011;6627;50.920;12.050;2022-09-13T03:07:00;10.10;;;7.93;;
13122;SDS011;6627;50.920;12.050;2022-09-13T03:09:28;9.27;;;7.23;;
13122;SDS011;6627;50.920;12.050;2022-09-13T03:12:13;9.63;;;7.10;;
13122;SDS011;6627;50.920;12.050;2022-09-13T03:15:04;9.23;;;7.53;;
13122;SDS011;6627;50.920;12.050;2022-09-13T03:17:48;8.90;;;8.03;;
13122;SDS011;6627;50.920;12.050;2022-09-13T03:20:28;8.77;;;7.87;;
13122;SDS011;6627;50.920;12.050;2022-09-13T03:23:14;8.50;;;7.57;;
13122;SDS011;6627;50.920;12.050;2022-09-13T03:26:05;8.97;;;7.40;;
13122;SDS011;6627;50.920;12.050;2022-09-13T03:28:52;9.47;;;7.70;;
13122;SDS011;6627;50.920;12.050;2022-09-13T03:31:32;9.20;;;7.17;;
13122;SDS011;6627;50.920;12.050;2022-09-13T03:34:08;8.77;;;7.20;;
13122;SDS011;6627;50.920;12.050;2022-09-13T03:36:46;9.73;;;7.83;;
13122;SDS011;6627;50.920;12.050;2022-09-13T03:39:23;8.77;;;7.57;;
13122;SDS011;6627;50.920;12.050;2022-09-13T03:42:03;8.60;;;7.20;;
13122;SDS011;6627;50.920;12.050;2022-09-13T03:44:39;9.63;;;7.70;;
13122;SDS011;6627;50.920;12.050;2022-09-13T03:47:11;8.83;;;7.10;;
13122;SDS011;6627;50.920;12.050;2022-09-13T03:49:43;8.43;;;7.53;;
13122;SDS011;6627;50.920;12.050;2022-09-13T03:52:11;7.80;;;7.00;;
13122;SDS011;6627;50.920;12.050;2022-09-13T03:54:40;11.83;;;7.17;;
13122;SDS011;6627;50.920;12.050;2022-09-13T03:57:08;11.80;;;7.13;;
13122;SDS011;6627;50.920;12.050;2022-09-13T03:59:39;13.27;;;7.23;;
13122;SDS011;6627;50.920;12.050;2022-09-13T04:02:11;15.97;;;8.43;;
13122;SDS011;6627;50.920;12.050;2022-09-13T04:04:40;16.87;;;8.90;;
13122;SDS011;6627;50.920;12.050;2022-09-13T04:07:10;11.23;;;8.47;;
13122;SDS011;6627;50.920;12.050;2022-09-13T04:09:41;12.77;;;8.80;;
13122;SDS011;6627;50.920;12.050;2022-09-13T04:12:08;11.97;;;9.07;;
13122;SDS011;6627;50.920;12.050;2022-09-13T04:14:35;10.23;;;8.10;;
13122;SDS011;6627;50.920;12.050;2022-09-13T04:17:03;9.33;;;8.33;;
13122;SDS011;6627;50.920;12.050;2022-09-13T04:19:31;9.90;;;8.50;;
13122;SDS011;6627;50.920;12.050;2022-09-13T04:21:58;8.93;;;8.03;;
13122;SDS011;6627;50.920;12.050;2022-09-13T04:24:26;10.00;;;8.07;;
13122;SDS011;6627;50.920;12.050;2022-09-13T04:26:57;9.17;;;8.07;;
13122;SDS011;6627;50.920;12.050;2022-09-13T04:29:25;10.37;;;7.87;;
13122;SDS011;6627;50.920;12.050;2022-09-13T04:31:53;8.60;;;7.70;;
13122;SDS011;6627;50.920;12.050;2022-09-13T04:34:20;9.27;;;8.27;;
13122;SDS011;6627;50.920;12.050;2022-09-13T04:36:49;9.00;;;8.10;;
13122;SDS011;6627;50.920;12.050;2022-09-13T04:39:18;8.40;;;7.50;;
13122;SDS011;6627;50.920;12.050;2022-09-13T04:41:47;8.87;;;7.87;;
13122;SDS011;6627;50.920;12.050;2022-09-13T04:44:18;10.00;;;8.83;;
13122;SDS011;6627;50.920;12.050;2022-09-13T04:46:47;9.87;;;8.83;;
13122;SDS011;6627;50.920;12.050;2022-09-13T04:49:15;9.43;;;8.27;;
13122;SDS011;6627;50.920;12.050;2022-09-13T04:51:44;11.23;;;9.13;;
13122;SDS011;6627;50.920;12.050;2022-09-13T04:54:12;11.73;;;8.53;;
13122;SDS011;6627;50.920;12.050;2022-09-13T04:56:40;10.57;;;8.40;;
13122;SDS011;6627;50.920;12.050;2022-09-13T04:59:09;9.83;;;8.83;;
13122;SDS011;6627;50.920;12.050;2022-09-13T05:01:38;9.50;;;8.50;;
13122;SDS011;6627;50.920;12.050;2022-09-13T05:04:06;10.43;;;8.63;;
13122;SDS011;6627;50.920;12.050;2022-09-13T05:06:35;12.53;;;9.03;;
13122;SDS011;6627;50.920;12.050;2022-09-13T05:09:02;9.53;;;8.63;;
13122;SDS011;6627;50.920;12.050;2022-09-13T05:11:31;9.73;;;8.80;;
13122;SDS011;6627;50.920;12.050;2022-09-13T05:13:59;12.30;;;7.20;;
13122;SDS011;6627;50.920;12.050;2022-09-13T05:16:28;9.17;;;7.77;;
13122;SDS011;6627;50.920;12.050;2022-09-13T05:18:58;9.00;;;8.10;;
13122;SDS011;6627;50.920;12.050;2022-09-13T05:21:27;9.40;;;8.50;;
13122;SDS011;6627;50.920;12.050;2022-09-13T05:23:55;9.50;;;8.40;;
13122;SDS011;6627;50.920;12.050;2022-09-13T05:26:24;10.00;;;8.57;;
13122;SDS011;6627;50.920;12.050;2022-09-13T05:28:55;10.13;;;8.03;;
13122;SDS011;6627;50.920;12.050;2022-09-13T05:31:23;11.20;;;8.23;;
13122;SDS011;6627;50.920;12.050;2022-09-13T05:33:55;12.83;;;8.77;;
13122;SDS011;6627;50.920;12.050;2022-09-13T05:36:26;12.20;;;7.73;;
13122;SDS011;6627;50.920;12.050;2022-09-13T05:38:54;9.20;;;8.23;;
13122;SDS011;6627;50.920;12.050;2022-09-13T05:41:23;10.90;;;8.40;;
13122;SDS011;6627;50.920;12.050;2022-09-13T05:43:50;10.80;;;8.70;;
13122;SDS011;6627;50.920;12.050;2022-09-13T05:46:19;10.53;;;9.03;;
13122;SDS011;6627;50.920;12.050;2022-09-13T05:48:48;9.60;;;8.60;;
13122;SDS011;6627;50.920;12.050;2022-09-13T05:51:17;13.53;;;9.07;;
13122;SDS011;6627;50.920;12.050;2022-09-13T05:53:46;9.93;;;8.50;;
13122;SDS011;6627;50.920;12.050;2022-09-13T05:56:16;10.13;;;9.03;;
13122;SDS011;6627;50.920;12.050;2022-09-13T05:58:46;10.23;;;9.17;;
13122;SDS011;6627;50.920;12.050;2022-09-13T06:01:16;14.30;;;8.73;;
13122;SDS011;6627;50.920;12.050;2022-09-13T06:03:46;9.60;;;8.60;;
13122;SDS011;6627;50.920;12.050;2022-09-13T06:06:14;10.50;;;9.07;;
13122;SDS011;6627;50.920;12.050;2022-09-13T06:08:44;10.00;;;8.50;;
13122;SDS011;6627;50.920;12.050;2022-09-13T06:11:14;10.47;;;9.33;;
13122;SDS011;6627;50.920;12.050;2022-09-13T06:14:00;10.07;;;8.90;;
13122;SDS011;6627;50.920;12.050;2022-09-13T06:16:28;11.07;;;8.53;;
13122;SDS011;6627;50.920;12.050;2022-09-13T06:18:56;10.07;;;9.07;;
13122;SDS011;6627;50.920;12.050;2022-09-13T06:21:24;12.40;;;9.67;;
13122;SDS011;6627;50.920;12.050;2022-09-13T06:23:52;10.33;;;9.13;;
13122;SDS011;6627;50.920;12.050;2022-09-13T06:26:21;10.57;;;8.57;;
13122;SDS011;6627;50.920;12.050;2022-09-13T06:28:51;9.80;;;8.80;;
13122;SDS011;6627;50.920;12.050;2022-09-13T06:31:21;11.17;;;8.80;;
13122;SDS011;6627;50.920;12.050;2022-09-13T06:33:53;10.27;;;9.10;;
13122;SDS011;6627;50.920;12.050;2022-09-13T06:36:24;11.60;;;9.17;;
13122;SDS011;6627;50.920;12.050;2022-09-13T06:38:52;9.93;;;8.43;;
13122;SDS011;6627;50.920;12.050;2022-09-13T06:41:21;11.47;;;8.90;;
13122;SDS011;6627;50.920;12.050;2022-09-13T06:43:51;10.73;;;9.50;;
13122;SDS011;6627;50.920;12.050;2022-09-13T06:46:20;12.10;;;8.90;;
13122;SDS011;6627;50.920;12.050;2022-09-13T06:48:47;12.27;;;8.33;;
13122;SDS011;6627;50.920;12.050;2022-09-13T06:51:15;16.20;;;9.07;;
13122;SDS011;6627;50.920;12.050;2022-09-13T06:53:47;12.90;;;8.70;;
13122;SDS011;6627;50.920;12.050;2022-09-13T06:56:18;10.93;;;8.97;;
13122;SDS011;6627;50.920;12.050;2022-09-13T06:58:48;12.20;;;9.40;;
13122;SDS011;6627;50.920;12.050;2022-09-13T07:01:22;10.43;;;8.83;;
13122;SDS011;6627;50.920;12.050;2022-09-13T07:03:53;12.37;;;8.37;;
13122;SDS011;6627;50.920;12.050;2022-09-13T07:06:25;13.47;;;8.70;;
13122;SDS011;6627;50.920;12.050;2022-09-13T07:08:57;10.03;;;8.30;;
13122;SDS011;6627;50.920;12.050;2022-09-13T07:11:28;11.23;;;9.30;;
13122;SDS011;6627;50.920;12.050;2022-09-13T07:13:59;12.67;;;8.00;;
13122;SDS011;6627;50.920;12.050;2022-09-13T07:16:28;9.57;;;8.60;;
13122;SDS011;6627;50.920;12.050;2022-09-13T07:18:58;11.13;;;8.27;;
13122;SDS011;6627;50.920;12.050;2022-09-13T07:21:30;10.60;;;8.60;;
13122;SDS011;6627;50.920;12.050;2022-09-13T07:24:00;10.23;;;8.47;;
13122;SDS011;6627;50.920;12.050;2022-09-13T07:26:28;17.43;;;9.03;;
13122;SDS011;6627;50.920;12.050;2022-09-13T07:28:58;10.77;;;8.70;;
13122;SDS011;6627;50.920;12.050;2022-09-13T07:31:28;10.83;;;8.93;;
13122;SDS011;6627;50.920;12.050;2022-09-13T07:33:59;11.13;;;8.83;;
13122;SDS011;6627;50.920;12.050;2022-09-13T07:36:29;10.20;;;8.80;;
13122;SDS011;6627;50.920;12.050;2022-09-13T07:39:01;11.67;;;9.60;;
13122;SDS011;6627;50.920;12.050;2022-09-13T07:41:31;12.20;;;9.40;;
13122;SDS011;6627;50.920;12.050;2022-09-13T07:44:00;13.20;;;9.37;;
13122;SDS011;6627;50.920;12.050;2022-09-13T07:46:29;10.03;;;8.73;;
13122;SDS011;6627;50.920;12.050;2022-09-13T07:48:59;11.27;;;9.30;;
13122;SDS011;6627;50.920;12.050;2022-09-13T07:51:27;11.17;;;9.80;;
13122;SDS011;6627;50.920;12.050;2022-09-13T07:53:57;13.47;;;9.70;;
13122;SDS011;6627;50.920;12.050;2022-09-13T07:56:28;13.87;;;9.97;;
13122;SDS011;6627;50.920;12.050;2022-09-13T07:58:58;13.97;;;10.40;;
13122;SDS011;6627;50.920;12.050;2022-09-13T08:01:28;11.50;;;10.23;;
13122;SDS011;6627;50.920;12.050;2022-09-13T08:04:01;11.80;;;10.57;;
13122;SDS011;6627;50.920;12.050;2022-09-13T08:06:30;12.20;;;10.90;;
13122;SDS011;6627;50.920;12.050;2022-09-13T08:08:59;13.07;;;11.03;;
13122;SDS011;6627;50.920;12.050;2022-09-13T08:11:30;14.90;;;11.53;;
13122;SDS011;6627;50.920;12.050;2022-09-13T08:14:01;13.53;;;11.77;;
13122;SDS011;6627;50.920;12.050;2022-09-13T08:16:31;14.40;;;11.83;;
13122;SDS011;6627;50.920;12.050;2022-09-13T08:19:00;14.33;;;11.33;;
13122;SDS011;6627;50.920;12.050;2022-09-13T08:21:31;13.63;;;10.87;;
13122;SDS011;6627;50.920;12.050;2022-09-13T08:24:02;12.23;;;10.87;;
13122;SDS011;6627;50.920;12.050;2022-09-13T08:26:33;13.00;;;10.53;;
13122;SDS011;6627;50.920;12.050;2022-09-13T08:29:03;12.53;;;10.10;;
13122;SDS011;6627;50.920;12.050;2022-09-13T08:31:32;11.60;;;9.40;;
13122;SDS011;6627;50.920;12.050;2022-09-13T08:34:00;11.17;;;9.50;;
13122;SDS011;6627;50.920;12.050;2022-09-13T08:36:28;12.80;;;9.80;;
13122;SDS011;6627;50.920;12.050;2022-09-13T08:38:56;11.17;;;9.40;;
13122;SDS011;6627;50.920;12.050;2022-09-13T08:41:30;11.17;;;8.80;;
13122;SDS011;6627;50.920;12.050;2022-09-13T08:44:20;9.93;;;8.47;;
13122;SDS011;6627;50.920;12.050;2022-09-13T08:46:56;12.30;;;8.70;;
13122;SDS011;6627;50.920;12.050;2022-09-13T08:49:40;10.00;;;8.17;;
13122;SDS011;6627;50.920;12.050;2022-09-13T08:52:16;8.97;;;8.07;;
13122;SDS011;6627;50.920;12.050;2022-09-13T08:54:55;10.33;;;7.40;;
13122;SDS011;6627;50.920;12.050;2022-09-13T08:57:26;9.10;;;6.97;;
13122;SDS011;6627;50.920;12.050;2022-09-13T09:00:09;8.03;;;7.20;;
13122;SDS011;6627;50.920;12.050;2022-09-13T09:02:52;8.47;;;6.63;;
13122;SDS011;6627;50.920;12.050;2022-09-13T09:05:39;7.90;;;6.33;;
13122;SDS011;6627;50.920;12.050;2022-09-13T09:08:14;8.97;;;7.10;;
13122;SDS011;6627;50.920;12.050;2022-09-13T09:11:01;7.07;;;6.37;;
13122;SDS011;6627;50.920;12.050;2022-09-13T09:13:36;8.17;;;6.17;;
13122;SDS011;6627;50.920;12.050;2022-09-13T09:16:22;9.00;;;6.10;;
13122;SDS011;6627;50.920;12.050;2022-09-13T09:19:02;7.47;;;5.80;;
13122;SDS011;6627;50.920;12.050;2022-09-13T09:21:42;8.17;;;5.63;;
13122;SDS011;6627;50.920;12.050;2022-09-13T09:24:15;8.97;;;6.10;;
13122;SDS011;6627;50.920;12.050;2022-09-13T09:26:47;7.40;;;5.60;;
13122;SDS011;6627;50.920;12.050;2022-09-13T09:29:17;8.97;;;6.00;;
13122;SDS011;6627;50.920;12.050;2022-09-13T09:31:53;9.00;;;6.00;;
13122;SDS011;6627;50.920;12.050;2022-09-13T09:34:41;6.47;;;5.87;;
13122;SDS011;6627;50.920;12.050;2022-09-13T09:37:29;6.57;;;6.07;;
13122;SDS011;6627;50.920;12.050;2022-09-13T09:39:58;9.57;;;6.47;;
13122;SDS011;6627;50.920;12.050;2022-09-13T09:42:33;8.53;;;6.20;;
13122;SDS011;6627;50.920;12.050;2022-09-13T09:45:17;6.70;;;5.53;;
13122;SDS011;6627;50.920;12.050;2022-09-13T09:47:52;7.80;;;5.37;;
13122;SDS011;6627;50.920;12.050;2022-09-13T09:50:29;6.03;;;5.17;;
13122;SDS011;6627;50.920;12.050;2022-09-13T09:53:02;5.10;;;4.60;;
13122;SDS011;6627;50.920;12.050;2022-09-13T09:55:34;4.90;;;4.10;;
13122;SDS011;6627;50.920;12.050;2022-09-13T09:58:13;5.13;;;4.40;;
13122;SDS011;6627;50.920;12.050;2022-09-13T10:00:52;6.27;;;4.60;;
13122;SDS011;6627;50.920;12.050;2022-09-13T10:03:23;7.13;;;4.60;;
13122;SDS011;6627;50.920;12.050;2022-09-13T10:06:02;6.00;;;4.00;;
13122;SDS011;6627;50.920;12.050;2022-09-13T10:08:33;4.23;;;3.93;;
13122;SDS011;6627;50.920;12.050;2022-09-13T10:11:03;5.47;;;4.57;;
13122;SDS011;6627;50.920;12.050;2022-09-13T10:13:32;4.70;;;4.30;;
13122;SDS011;6627;50.920;12.050;2022-09-13T10:16:01;4.80;;;4.30;;
13122;SDS011;6627;50.920;12.050;2022-09-13T10:18:32;4.30;;;3.90;;
13122;SDS011;6627;50.920;12.050;2022-09-13T10:21:03;4.13;;;3.60;;
13122;SDS011;6627;50.920;12.050;2022-09-13T10:23:33;5.57;;;3.70;;
13122;SDS011;6627;50.920;12.050;2022-09-13T10:26:06;3.90;;;3.50;;
13122;SDS011;6627;50.920;12.050;2022-09-13T10:28:40;5.70;;;3.60;;
13122;SDS011;6627;50.920;12.050;2022-09-13T10:31:18;3.80;;;3.40;;
13122;SDS011;6627;50.920;12.050;2022-09-13T10:33:55;7.10;;;3.17;;
13122;SDS011;6627;50.920;12.050;2022-09-13T10:36:28;3.40;;;3.10;;
13122;SDS011;6627;50.920;12.050;2022-09-13T10:39:00;3.63;;;3.33;;
13122;SDS011;6627;50.920;12.050;2022-09-13T10:41:32;3.80;;;3.40;;
13122;SDS011;6627;50.920;12.050;2022-09-13T10:44:23;3.50;;;3.23;;
13122;SDS011;6627;50.920;12.050;2022-09-13T10:46:59;3.40;;;3.17;;
13122;SDS011;6627;50.920;12.050;2022-09-13T10:49:35;4.90;;;3.30;;
13122;SDS011;6627;50.920;12.050;2022-09-13T10:55:15;4.27;;;3.07;;
13122;SDS011;6627;50.920;12.050;2022-09-13T10:58:11;3.53;;;3.23;;
13122;SDS011;6627;50.920;12.050;2022-09-13T11:00:45;4.50;;;3.33;;
13122;SDS011;6627;50.920;12.050;2022-09-13T11:03:35;3.33;;;3.03;;
13122;SDS011;6627;50.920;12.050;2022-09-13T11:06:26;2.60;;;2.40;;
13122;SDS011;6627;50.920;12.050;2022-09-13T11:09:02;3.70;;;2.57;;
13122;SDS011;6627;50.920;12.050;2022-09-13T11:11:42;2.60;;;2.40;;
13122;SDS011;6627;50.920;12.050;2022-09-13T11:14:23;3.17;;;2.50;;
13122;SDS011;6627;50.920;12.050;2022-09-13T11:17:14;2.43;;;2.23;;
13122;SDS011;6627;50.920;12.050;2022-09-13T11:20:10;3.10;;;2.60;;
13122;SDS011;6627;50.920;12.050;2022-09-13T11:26:19;3.00;;;2.57;;
13122;SDS011;6627;50.920;12.050;2022-09-13T11:29:02;2.70;;;2.50;;
13122;SDS011;6627;50.920;12.050;2022-09-13T11:31:48;4.13;;;2.43;;
13122;SDS011;6627;50.920;12.050;2022-09-13T11:34:40;3.63;;;2.30;;
13122;SDS011;6627;50.920;12.050;2022-09-13T11:37:25;2.80;;;2.50;;
13122;SDS011;6627;50.920;12.050;2022-09-13T11:40:18;2.60;;;2.40;;
13122;SDS011;6627;50.920;12.050;2022-09-13T11:43:01;2.90;;;2.43;;
13122;SDS011;6627;50.920;12.050;2022-09-13T11:45:57;3.30;;;2.50;;
13122;SDS011;6627;50.920;12.050;2022-09-13T11:51:35;2.40;;;2.20;;
13122;SDS011;6627;50.920;12.050;2022-09-13T11:54:22;2.40;;;2.20;;
13122;SDS011;6627;50.920;12.050;2022-09-13T11:57:06;4.40;;;2.50;;
13122;SDS011;6627;50.920;12.050;2022-09-13T11:59:39;2.63;;;2.40;;
13122;SDS011;6627;50.920;12.050;2022-09-13T12:02:13;2.47;;;2.27;;
13122;SDS011;6627;50.920;12.050;2022-09-13T12:04:51;2.50;;;2.30;;
13122;SDS011;6627;50.920;12.050;2022-09-13T12:07:28;2.53;;;2.23;;
13122;SDS011;6627;50.920;12.050;2022-09-13T12:10:04;2.60;;;2.37;;
13122;SDS011;6627;50.920;12.050;2022-09-13T12:12:42;3.00;;;2.20;;
13122;SDS011;6627;50.920;12.050;2022-09-13T12:15:18;2.87;;;2.40;;
13122;SDS011;6627;50.920;12.050;2022-09-13T12:17:55;2.57;;;2.33;;
13122;SDS011;6627;50.920;12.050;2022-09-13T12:20:32;2.40;;;2.20;;
13122;SDS011;6627;50.920;12.050;2022-09-13T12:23:04;2.97;;;2.13;;
13122;SDS011;6627;50.920;12.050;2022-09-13T12:25:44;2.80;;;2.30;;
13122;SDS011;6627;50.920;12.050;2022-09-13T12:28:21;2.57;;;2.30;;
13122;SDS011;6627;50.920;12.050;2022-09-13T12:30:54;3.00;;;2.47;;
13122;SDS011;6627;50.920;12.050;2022-09-13T12:33:27;2.57;;;2.20;;
13122;SDS011;6627;50.920;12.050;2022-09-13T12:35:59;3.03;;;2.40;;
13122;SDS011;6627;50.920;12.050;2022-09-13T12:39:08;2.40;;;2.20;;
13122;SDS011;6627;50.920;12.050;2022-09-13T12:42:08;2.60;;;2.40;;
13122;SDS011;6627;50.920;12.050;2022-09-13T12:45:17;2.50;;;2.20;;
13122;SDS011;6627;50.920;12.050;2022-09-13T12:51:07;2.33;;;2.13;;
13122;SDS011;6627;50.920;12.050;2022-09-13T12:54:01;3.30;;;2.10;;
13122;SDS011;6627;50.920;12.050;2022-09-13T12:57:00;2.13;;;1.93;;
13122;SDS011;6627;50.920;12.050;2022-09-13T12:59:53;3.07;;;1.90;;
13122;SDS011;6627;50.920;12.050;2022-09-13T13:02:42;2.80;;;1.60;;
13122;SDS011;6627;50.920;12.050;2022-09-13T13:05:19;1.70;;;1.60;;
13122;SDS011;6627;50.920;12.050;2022-09-13T13:07:55;2.33;;;1.70;;
13122;SDS011;6627;50.920;12.050;2022-09-13T13:10:27;2.40;;;1.70;;
13122;SDS011;6627;50.920;12.050;2022-09-13T13:13:10;1.97;;;1.70;;
13122;SDS011;6627;50.920;12.050;2022-09-13T13:15:59;2.00;;;1.80;;
13122;SDS011;6627;50.920;12.050;2022-09-13T13:18:47;2.00;;;1.90;;
13122;SDS011;6627;50.920;12.050;2022-09-13T13:21:27;2.10;;;1.90;;
13122;SDS011;6627;50.920;12.050;2022-09-13T13:33:20;2.77;;;2.30;;
13122;SDS011;6627;50.920;12.050;2022-09-13T13:35:54;3.53;;;2.30;;
13122;SDS011;6627;50.920;12.050;2022-09-13T13:38:41;2.37;;;2.17;;
13122;SDS011;6627;50.920;12.050;2022-09-13T13:47:55;4.90;;;2.40;;
13122;SDS011;6627;50.920;12.050;2022-09-13T13:53:59;2.50;;;2.10;;
13122;SDS011;6627;50.920;12.050;2022-09-13T13:56:49;3.00;;;2.03;;
13122;SDS011;6627;50.920;12.050;2022-09-13T13:59:21;2.53;;;2.27;;
13122;SDS011;6627;50.920;12.050;2022-09-13T14:01:54;3.37;;;2.20;;
13122;SDS011;6627;50.920;12.050;2022-09-13T14:10:57;2.30;;;2.10;;
13122;SDS011;6627;50.920;12.050;2022-09-13T14:13:42;3.17;;;2.27;;
13122;SDS011;6627;50.920;12.050;2022-09-13T14:16:30;2.00;;;1.80;;
13122;SDS011;6627;50.920;12.050;2022-09-13T14:19:22;2.73;;;2.20;;
13122;SDS011;6627;50.920;12.050;2022-09-13T14:22:10;3.43;;;2.20;;
13122;SDS011;6627;50.920;12.050;2022-09-13T14:24:43;2.20;;;2.00;;
13122;SDS011;6627;50.920;12.050;2022-09-13T14:27:17;2.53;;;1.90;;
13122;SDS011;6627;50.920;12.050;2022-09-13T14:29:48;2.00;;;1.90;;
13122;SDS011;6627;50.920;12.050;2022-09-13T14:32:21;3.03;;;2.03;;
13122;SDS011;6627;50.920;12.050;2022-09-13T14:34:53;3.53;;;1.90;;
13122;SDS011;6627;50.920;12.050;2022-09-13T14:37:27;2.10;;;1.90;;
13122;SDS011;6627;50.920;12.050;2022-09-13T14:39:58;2.87;;;1.83;;
13122;SDS011;6627;50.920;12.050;2022-09-13T14:42:38;1.70;;;1.60;;
13122;SDS011;6627;50.920;12.050;2022-09-13T14:45:11;2.20;;;2.00;;
13122;SDS011;6627;50.920;12.050;2022-09-13T14:47:43;2.10;;;1.90;;
13122;SDS011;6627;50.920;12.050;2022-09-13T14:50:23;2.80;;;2.17;;
13122;SDS011;6627;50.920;12.050;2022-09-13T14:52:56;2.00;;;1.80;;
13122;SDS011;6627;50.920;12.050;2022-09-13T14:55:27;1.70;;;1.60;;
13122;SDS011;6627;50.920;12.050;2022-09-13T14:58:00;4.43;;;2.00;;
13122;SDS011;6627;50.920;12.050;2022-09-13T15:00:44;3.73;;;1.90;;
13122;SDS011;6627;50.920;12.050;2022-09-13T15:03:17;2.53;;;1.80;;
13122;SDS011;6627;50.920;12.050;2022-09-13T15:05:49;2.33;;;1.70;;
13122;SDS011;6627;50.920;12.050;2022-09-13T15:08:41;2.30;;;2.00;;
13122;SDS011;6627;50.920;12.050;2022-09-13T15:11:13;3.37;;;1.97;;
13122;SDS011;6627;50.920;12.050;2022-09-13T15:14:20;3.00;;;1.73;;
13122;SDS011;6627;50.920;12.050;2022-09-13T15:16:54;2.27;;;1.70;;
13122;SDS011;6627;50.920;12.050;2022-09-13T15:19:30;2.90;;;1.90;;
13122;SDS011;6627;50.920;12.050;2022-09-13T15:22:10;4.07;;;1.97;;
13122;SDS011;6627;50.920;12.050;2022-09-13T15:24:45;2.33;;;1.80;;
13122;SDS011;6627;50.920;12.050;2022-09-13T15:27:17;1.73;;;1.63;;
13122;SDS011;6627;50.920;12.050;2022-09-13T15:29:50;3.00;;;2.03;;
13122;SDS011;6627;50.920;12.050;2022-09-13T15:32:21;2.37;;;1.80;;
13122;SDS011;6627;50.920;12.050;2022-09-13T15:34:57;3.40;;;2.00;;
13122;SDS011;6627;50.920;12.050;2022-09-13T15:37:30;1.63;;;1.53;;
13122;SDS011;6627;50.920;12.050;2022-09-13T15:40:10;2.07;;;1.90;;
13122;SDS011;6627;50.920;12.050;2022-09-13T15:42:44;1.77;;;1.67;;
13122;SDS011;6627;50.920;12.050;2022-09-13T15:45:14;2.27;;;2.07;;
13122;SDS011;6627;50.920;12.050;2022-09-13T15:47:45;3.30;;;2.27;;
13122;SDS011;6627;50.920;12.050;2022-09-13T15:50:20;3.17;;;1.87;;
13122;SDS011;6627;50.920;12.050;2022-09-13T15:52:51;2.10;;;1.90;;
13122;SDS011;6627;50.920;12.050;2022-09-13T15:55:20;2.10;;;1.70;;
13122;SDS011;6627;50.920;12.050;2022-09-13T15:57:49;7.70;;;2.30;;
13122;SDS011;6627;50.920;12.050;2022-09-13T16:00:18;1.90;;;1.63;;
13122;SDS011;6627;50.920;12.050;2022-09-13T16:02:53;2.87;;;2.10;;
13122;SDS011;6627;50.920;12.050;2022-09-13T16:05:22;2.20;;;2.00;;
13122;SDS011;6627;50.920;12.050;2022-09-13T16:07:50;2.37;;;1.90;;
13122;SDS011;6627;50.920;12.050;2022-09-13T16:10:19;3.30;;;1.80;;
13122;SDS011;6627;50.920;12.050;2022-09-13T16:12:49;2.00;;;1.90;;
13122;SDS011;6627;50.920;12.050;2022-09-13T16:15:17;1.80;;;1.70;;